Terminal Aerodrome Forecast
Issued by NWS Raleigh/Durham, NC

Home | Current Version | Previous Version | Text Only | Print | Product List | Glossary On
Versions: 1 2 3 4 5 6 7 8 9 10 11 12 13 14 15 16 17 18 19 20 21 22 23 24 25 26 27 28 29 30 31 32 33 34 35 36 37 38 39 40 41 42 43 44 45 46
000
FTUS42 KRAH 241133
TAFRDU
TAF
KRDU 241133Z 2412/2512 24009KT P6SM FEW020 SCT150 BKN250
      TEMPO 2412/2414 23012G20KT BKN015
     FM241900 26009KT P6SM VCTS SCT035CB BKN080
      TEMPO 2420/2424 VRB15G30KT 3SM -SHRA BKN020 BKN035 OVC120
     FM250000 25003KT P6SM FEW035 SCT250=

USA.gov is the U.S. government's official web portal to all federal, state and local government web resources and services.